createdAt,value
2018-10-17T00:00:19.890Z,13.60
2018-10-17T00:02:51.260Z,13.50
2018-10-17T00:05:23.802Z,13.40
2018-10-17T00:07:55.757Z,13.30
2018-10-17T00:10:27.567Z,13.30
2018-10-17T00:12:59.642Z,13.20
2018-10-17T00:15:31.507Z,13.20
2018-10-17T00:18:03.676Z,13.10
2018-10-17T00:20:35.706Z,13.00
2018-10-17T00:23:07.589Z,13.00
2018-10-17T00:25:38.940Z,13.00
2018-10-17T00:28:10.294Z,13.00
2018-10-17T00:30:42.207Z,13.00
2018-10-17T00:33:14.295Z,13.00
2018-10-17T00:35:46.095Z,12.90
2018-10-17T00:38:18.076Z,12.90
2018-10-17T00:40:50.127Z,12.90
2018-10-17T00:43:22.020Z,13.00
2018-10-17T00:45:53.484Z,13.00
2018-10-17T00:48:24.931Z,13.00
2018-10-17T00:50:56.751Z,12.90
2018-10-17T00:53:28.644Z,12.90
2018-10-17T00:56:00.764Z,12.80
2018-10-17T00:58:32.724Z,12.80
2018-10-17T01:01:05.069Z,12.70
2018-10-17T01:03:37.200Z,12.60
2018-10-17T01:06:09.972Z,12.60
2018-10-17T01:08:41.676Z,12.60
2018-10-17T01:11:13.634Z,12.50
2018-10-17T01:13:45.896Z,12.40
2018-10-17T01:16:18.102Z,12.40
2018-10-17T01:18:50.200Z,12.50
2018-10-17T01:21:22.312Z,12.40
2018-10-17T01:23:53.784Z,12.30
2018-10-17T01:26:25.848Z,12.40
2018-10-17T01:28:57.648Z,12.50
2018-10-17T01:31:29.408Z,12.50
2018-10-17T01:34:01.516Z,12.50
2018-10-17T01:36:33.375Z,12.50
2018-10-17T01:39:05.916Z,12.50
2018-10-17T01:41:37.601Z,12.50
2018-10-17T01:44:09.691Z,12.50
2018-10-17T01:46:41.526Z,12.60
2018-10-17T01:49:13.820Z,12.60
2018-10-17T01:51:45.768Z,12.60
2018-10-17T01:54:17.259Z,12.60
2018-10-17T01:56:49.412Z,12.60
2018-10-17T01:59:21.328Z,12.60
2018-10-17T02:01:53.164Z,12.60
2018-10-17T02:04:25.462Z,12.70
2018-10-17T02:06:57.382Z,12.80
2018-10-17T02:09:29.680Z,12.80
2018-10-17T02:12:01.436Z,12.70
2018-10-17T02:14:33.164Z,12.60
2018-10-17T02:17:05.130Z,12.70
2018-10-17T02:19:37.160Z,12.70
2018-10-17T02:22:08.820Z,12.70
2018-10-17T02:24:40.708Z,12.80
2018-10-17T02:27:12.551Z,12.70
2018-10-17T02:29:44.493Z,12.70
2018-10-17T02:32:15.884Z,12.80
2018-10-17T02:34:53.087Z,12.80
2018-10-17T02:37:24.919Z,12.70
2018-10-17T02:39:57.310Z,12.70
2018-10-17T02:42:29.355Z,12.70
2018-10-17T02:45:01.348Z,12.70
2018-10-17T02:47:33.792Z,12.70
2018-10-17T02:50:09.135Z,12.70
2018-10-17T02:52:41.952Z,12.70
2018-10-17T02:55:16.182Z,12.70
2018-10-17T02:57:48.140Z,12.70
2018-10-17T03:00:20.104Z,12.70
2018-10-17T03:02:52.102Z,12.70
2018-10-17T03:05:24.391Z,12.80
2018-10-17T03:07:56.538Z,12.70
2018-10-17T03:10:28.284Z,12.80
2018-10-17T03:13:00.544Z,12.80
2018-10-17T03:15:32.900Z,12.90
2018-10-17T03:18:04.804Z,12.90
2018-10-17T03:20:36.767Z,12.90
2018-10-17T03:23:09.397Z,13.00
2018-10-17T03:25:42.182Z,13.10
2018-10-17T03:28:13.937Z,13.00
2018-10-17T03:30:46.008Z,13.10
2018-10-17T03:33:18.428Z,13.20
2018-10-17T03:35:50.006Z,13.20
2018-10-17T03:38:22.245Z,13.30
2018-10-17T03:40:54.025Z,13.30
2018-10-17T03:43:26.572Z,13.30
2018-10-17T03:45:59.456Z,13.30
2018-10-17T03:48:31.197Z,13.30
2018-10-17T03:51:02.936Z,13.30
2018-10-17T03:53:35.205Z,13.30
2018-10-17T03:56:07.153Z,13.30
2018-10-17T03:58:39.073Z,13.30
2018-10-17T04:01:10.927Z,13.20
2018-10-17T04:03:42.657Z,13.20
2018-10-17T04:06:14.047Z,13.20
2018-10-17T04:08:45.587Z,13.10
2018-10-17T04:11:17.936Z,13.10
2018-10-17T04:13:49.564Z,13.00
2018-10-17T04:16:21.260Z,13.10
2018-10-17T04:18:52.748Z,13.00
2018-10-17T04:21:24.164Z,13.00
2018-10-17T04:23:55.668Z,13.00
2018-10-17T04:26:27.420Z,12.90
2018-10-17T04:28:59.008Z,12.90
2018-10-17T04:31:30.441Z,12.90
2018-10-17T04:34:02.608Z,12.80
2018-10-17T04:36:34.787Z,12.70
2018-10-17T04:39:08.556Z,12.60
2018-10-17T04:41:40.916Z,12.60
2018-10-17T04:44:13.211Z,12.50
2018-10-17T04:46:44.547Z,12.50
2018-10-17T04:49:16.417Z,12.50
2018-10-17T04:51:48.450Z,12.50
2018-10-17T04:54:20.335Z,12.40
2018-10-17T04:56:51.868Z,12.50
2018-10-17T04:59:23.648Z,12.50
2018-10-17T05:01:55.407Z,12.50
2018-10-17T05:04:27.186Z,12.50
2018-10-17T05:06:59.351Z,12.50
2018-10-17T05:09:30.876Z,12.50
2018-10-17T05:12:02.407Z,12.50
2018-10-17T05:14:33.899Z,12.50
2018-10-17T05:17:05.588Z,12.50
2018-10-17T05:19:37.604Z,12.40
2018-10-17T05:22:09.511Z,12.40
2018-10-17T05:24:41.223Z,12.60
2018-10-17T05:27:12.979Z,12.60
2018-10-17T05:29:44.489Z,12.70
2018-10-17T05:32:16.307Z,12.70
2018-10-17T05:34:48.094Z,12.60
2018-10-17T05:37:21.048Z,12.60
2018-10-17T05:39:52.951Z,12.50
2018-10-17T05:42:24.357Z,12.40
2018-10-17T05:44:55.968Z,12.30
2018-10-17T05:47:43.296Z,12.30
2018-10-17T05:50:15.352Z,12.40
2018-10-17T05:52:47.259Z,12.40
2018-10-17T05:55:20.294Z,12.40
2018-10-17T05:57:51.884Z,12.40
2018-10-17T06:00:23.833Z,12.40
2018-10-17T06:02:56.008Z,12.40
2018-10-17T06:05:27.679Z,12.40
2018-10-17T06:07:59.157Z,12.50
2018-10-17T06:10:31.272Z,12.50
2018-10-17T06:13:03.647Z,12.60
2018-10-17T06:15:35.576Z,12.70
2018-10-17T06:18:07.387Z,12.70
2018-10-17T06:20:38.902Z,12.80
2018-10-17T06:23:10.888Z,12.90
2018-10-17T06:25:43.707Z,13.10
2018-10-17T06:28:15.193Z,13.20
2018-10-17T06:30:49.658Z,13.40
2018-10-17T06:33:22.130Z,13.60
2018-10-17T06:35:54.013Z,13.80
2018-10-17T06:38:27.209Z,14.00
2018-10-17T06:40:58.794Z,14.10
2018-10-17T06:43:30.644Z,14.30
2018-10-17T06:46:03.147Z,14.50
2018-10-17T06:48:34.907Z,14.70
2018-10-17T06:51:08.103Z,14.90
2018-10-17T06:53:40.275Z,15.00
2018-10-17T06:56:11.904Z,15.10
2018-10-17T06:58:44.819Z,15.20
2018-10-17T07:01:41.902Z,15.30
2018-10-17T07:04:13.512Z,15.50
2018-10-17T07:06:45.012Z,15.60
2018-10-17T07:09:16.538Z,15.80
2018-10-17T07:11:48.597Z,15.90
2018-10-17T07:14:20.153Z,16.10
2018-10-17T07:16:51.858Z,16.10
2018-10-17T07:19:23.444Z,16.20
2018-10-17T07:21:55.044Z,16.40
2018-10-17T07:24:27.121Z,16.40
2018-10-17T07:26:59.661Z,16.50
2018-10-17T07:29:32.424Z,16.50
2018-10-17T07:32:04.164Z,16.60
2018-10-17T07:34:36.119Z,16.70
2018-10-17T07:37:09.588Z,16.60
2018-10-17T07:39:41.059Z,16.70
2018-10-17T07:42:13.632Z,16.70
2018-10-17T07:44:45.403Z,16.70
2018-10-17T07:47:17.579Z,16.70
2018-10-17T07:49:49.924Z,16.80
2018-10-17T07:52:21.471Z,16.70
2018-10-17T07:54:54.019Z,16.80
2018-10-17T07:57:26.013Z,16.80
2018-10-17T07:59:58.616Z,16.80
2018-10-17T08:02:30.066Z,16.90
2018-10-17T08:05:01.840Z,16.90
2018-10-17T08:07:33.690Z,17.00
2018-10-17T08:10:05.493Z,17.10
2018-10-17T08:12:37.564Z,17.20
2018-10-17T08:15:10.243Z,17.20
2018-10-17T08:17:42.997Z,17.30
2018-10-17T08:20:14.900Z,17.40
2018-10-17T08:22:46.697Z,17.50
2018-10-17T08:25:19.689Z,17.60
2018-10-17T08:27:51.712Z,17.70
2018-10-17T08:30:23.696Z,17.80
2018-10-17T08:32:55.556Z,18.00
2018-10-17T08:35:27.020Z,18.20
2018-10-17T08:37:59.754Z,18.20
2018-10-17T08:40:31.289Z,18.40
2018-10-17T08:43:03.349Z,18.60
2018-10-17T08:45:35.281Z,18.70
2018-10-17T08:48:07.198Z,18.90
2018-10-17T08:50:38.931Z,19.10
2018-10-17T08:53:10.604Z,19.20
2018-10-17T08:55:42.117Z,19.40
2018-10-17T08:58:13.974Z,19.50
2018-10-17T09:00:45.579Z,19.50
2018-10-17T09:03:17.342Z,19.60
2018-10-17T09:05:48.688Z,19.70
2018-10-17T09:08:20.283Z,19.80
2018-10-17T09:10:51.783Z,20.00
2018-10-17T09:13:23.417Z,20.00
2018-10-17T09:15:55.158Z,20.00
2018-10-17T09:18:26.559Z,20.10
2018-10-17T09:20:58.418Z,20.10
2018-10-17T09:23:29.849Z,20.20
2018-10-17T09:26:01.368Z,20.30
2018-10-17T09:28:32.885Z,20.40
2018-10-17T09:31:04.338Z,20.40
2018-10-17T09:33:36.257Z,20.50
2018-10-17T09:36:08.016Z,20.60
2018-10-17T09:38:39.673Z,20.70
2018-10-17T09:41:11.117Z,20.70
2018-10-17T09:43:42.820Z,20.80
2018-10-17T09:46:15.492Z,20.80
2018-10-17T09:48:47.439Z,20.80
2018-10-17T09:51:19.186Z,21.00
2018-10-17T09:53:50.649Z,21.20
2018-10-17T09:56:22.233Z,21.30
2018-10-17T09:58:54.079Z,21.50
2018-10-17T10:01:30.213Z,21.70
2018-10-17T10:04:01.862Z,21.90
2018-10-17T10:06:34.601Z,22.00
2018-10-17T10:09:07.167Z,22.30
2018-10-17T10:11:38.916Z,22.20
2018-10-17T10:14:10.452Z,22.30
2018-10-17T10:16:42.132Z,22.30
2018-10-17T10:19:13.785Z,22.30
2018-10-17T10:21:45.568Z,22.30
2018-10-17T10:24:19.952Z,22.30
2018-10-17T10:26:51.632Z,22.30
2018-10-17T10:29:23.211Z,22.10
2018-10-17T10:31:54.804Z,22.20
2018-10-17T10:34:26.322Z,22.10
2018-10-17T10:36:57.929Z,22.20
2018-10-17T10:39:29.401Z,22.20
2018-10-17T10:42:00.877Z,22.10
2018-10-17T10:44:32.644Z,22.00
2018-10-17T10:47:04.358Z,21.90
2018-10-17T10:49:35.906Z,22.00
2018-10-17T10:52:07.457Z,22.10
2018-10-17T10:54:39.467Z,22.20
2018-10-17T10:57:11.344Z,22.40
2018-10-17T10:59:43.135Z,22.70
2018-10-17T11:02:14.813Z,22.80
2018-10-17T11:04:47.157Z,22.70
2018-10-17T11:07:18.721Z,22.60
2018-10-17T11:09:50.567Z,22.60
2018-10-17T11:12:22.180Z,22.70
2018-10-17T11:14:54.768Z,22.90
2018-10-17T11:17:26.852Z,22.90
2018-10-17T11:19:58.277Z,23.20
2018-10-17T11:22:29.909Z,23.30
2018-10-17T11:25:01.539Z,23.50
2018-10-17T11:27:33.445Z,23.50
2018-10-17T11:30:05.231Z,23.50
2018-10-17T11:32:36.918Z,23.70
2018-10-17T11:35:09.917Z,23.80
2018-10-17T11:37:41.984Z,23.90
2018-10-17T11:40:14.964Z,23.90
2018-10-17T11:42:47.157Z,23.70
2018-10-17T11:45:19.627Z,23.70
2018-10-17T11:47:51.686Z,23.80
2018-10-17T11:50:23.899Z,23.70
2018-10-17T11:52:55.678Z,23.80
2018-10-17T11:55:27.319Z,24.00
2018-10-17T11:57:58.973Z,23.90
2018-10-17T12:00:31.743Z,23.90
2018-10-17T12:03:06.412Z,24.00
2018-10-17T12:05:38.567Z,24.20
2018-10-17T12:08:11.042Z,24.40
2018-10-17T12:10:42.460Z,24.20
2018-10-17T12:13:13.928Z,24.40
2018-10-17T12:15:45.928Z,24.50
2018-10-17T12:18:17.479Z,24.60
2018-10-17T12:20:49.767Z,24.70
2018-10-17T12:23:21.604Z,24.80
2018-10-17T12:25:52.981Z,25.20
2018-10-17T12:28:24.522Z,25.50
2018-10-17T12:30:56.356Z,26.00
2018-10-17T12:33:27.785Z,26.50
2018-10-17T12:35:59.892Z,25.90
2018-10-17T12:38:31.649Z,26.30
2018-10-17T12:41:03.253Z,26.00
2018-10-17T12:43:34.657Z,25.60
2018-10-17T12:46:07.137Z,25.70
2018-10-17T12:48:38.706Z,26.00
2018-10-17T12:51:10.198Z,26.20
2018-10-17T12:53:41.721Z,26.40
2018-10-17T12:56:14.461Z,26.50
2018-10-17T12:58:46.159Z,26.40
2018-10-17T13:01:18.081Z,26.80
2018-10-17T13:03:49.901Z,26.50
2018-10-17T13:06:21.473Z,26.50
2018-10-17T13:08:54.002Z,26.70
2018-10-17T13:11:25.954Z,27.00
2018-10-17T13:13:58.105Z,27.30
2018-10-17T13:16:29.565Z,27.60
2018-10-17T13:19:01.072Z,28.20
2018-10-17T13:21:35.570Z,28.50
2018-10-17T13:24:07.488Z,28.40
2018-10-17T13:26:40.510Z,28.10
2018-10-17T13:29:12.048Z,28.20
2018-10-17T13:31:44.597Z,28.50
2018-10-17T13:34:16.439Z,28.70
2018-10-17T13:36:48.937Z,28.00
2018-10-17T13:39:20.473Z,27.40
2018-10-17T13:41:52.490Z,27.40
2018-10-17T13:44:23.868Z,27.80
2018-10-17T13:46:55.980Z,28.00
2018-10-17T13:49:27.855Z,28.20
2018-10-17T13:51:59.468Z,27.70
2018-10-17T13:54:30.953Z,27.40
2018-10-17T13:57:02.667Z,27.50
2018-10-17T13:59:34.250Z,27.10
2018-10-17T14:02:05.798Z,27.20
2018-10-17T14:04:37.762Z,27.40
2018-10-17T14:07:09.327Z,27.20
2018-10-17T14:09:40.893Z,27.10
2018-10-17T14:12:12.462Z,26.80
2018-10-17T14:14:43.880Z,26.90
2018-10-17T14:17:15.906Z,26.70
2018-10-17T14:19:48.453Z,26.30
2018-10-17T14:22:22.056Z,26.50
2018-10-17T14:24:53.673Z,26.60
2018-10-17T14:27:25.580Z,26.50
2018-10-17T14:29:57.536Z,26.60
2018-10-17T14:32:29.023Z,25.90
2018-10-17T14:35:00.709Z,25.80
2018-10-17T14:37:32.403Z,25.60
2018-10-17T14:40:04.018Z,26.00
2018-10-17T14:42:36.013Z,26.10
2018-10-17T14:45:08.857Z,25.70
2018-10-17T14:47:41.350Z,25.50
2018-10-17T14:50:13.384Z,25.30
2018-10-17T14:52:45.041Z,25.40
2018-10-17T14:55:16.655Z,25.10
2018-10-17T14:57:48.187Z,25.10
2018-10-17T15:00:19.812Z,25.20
2018-10-17T15:02:51.588Z,26.00
2018-10-17T15:05:23.084Z,26.70
2018-10-17T15:07:55.030Z,27.50
2018-10-17T15:10:26.848Z,28.00
2018-10-17T15:12:58.567Z,27.90
2018-10-17T15:15:30.163Z,27.90
2018-10-17T15:18:01.774Z,27.60
2018-10-17T15:20:33.244Z,26.90
2018-10-17T15:23:04.840Z,26.30
2018-10-17T15:25:36.339Z,25.90
2018-10-17T15:28:07.914Z,25.40
2018-10-17T15:30:39.671Z,25.00
2018-10-17T15:33:12.188Z,24.70
2018-10-17T15:35:43.772Z,24.60
2018-10-17T15:38:15.800Z,24.40
2018-10-17T15:40:49.238Z,24.40
2018-10-17T15:43:22.503Z,24.40
2018-10-17T15:45:54.158Z,24.30
2018-10-17T15:48:25.577Z,24.10
2018-10-17T15:50:57.344Z,23.90
2018-10-17T15:53:28.883Z,23.80
2018-10-17T15:56:01.944Z,23.60
2018-10-17T15:58:33.673Z,23.40
2018-10-17T16:01:06.356Z,23.10
2018-10-17T16:03:38.905Z,22.90
2018-10-17T16:06:11.300Z,22.70
2018-10-17T16:08:44.078Z,22.60
2018-10-17T16:11:15.879Z,22.30
2018-10-17T16:13:48.302Z,22.00
2018-10-17T16:16:22.281Z,21.70
2018-10-17T16:18:54.166Z,21.40
2018-10-17T16:21:27.281Z,21.10
2018-10-17T16:23:59.954Z,20.90
2018-10-17T16:26:33.617Z,20.50
2018-10-17T16:29:05.563Z,20.20
2018-10-17T16:31:39.032Z,19.90
2018-10-17T16:34:10.894Z,19.60
2018-10-17T16:36:43.078Z,19.40
2018-10-17T16:39:14.732Z,19.20
2018-10-17T16:41:46.235Z,19.10
2018-10-17T16:44:18.009Z,18.90
2018-10-17T16:46:51.496Z,18.70
2018-10-17T16:49:25.023Z,18.60
2018-10-17T16:51:57.694Z,18.50
2018-10-17T16:54:29.331Z,18.40
2018-10-17T16:57:00.931Z,18.30
2018-10-17T16:59:33.421Z,18.20
2018-10-17T17:02:06.088Z,18.10
2018-10-17T17:04:38.414Z,18.00
2018-10-17T17:07:10.128Z,17.90
2018-10-17T17:09:42.621Z,17.80
2018-10-17T17:12:14.277Z,17.70
2018-10-17T17:14:46.122Z,17.60
2018-10-17T17:17:18.319Z,17.50
2018-10-17T17:19:50.216Z,17.40
2018-10-17T17:22:21.910Z,17.30
2018-10-17T17:24:53.584Z,17.30
2018-10-17T17:27:25.370Z,17.20
2018-10-17T17:29:57.271Z,17.10
2018-10-17T17:32:28.889Z,17.00
2018-10-17T17:35:01.699Z,16.90
2018-10-17T17:37:33.358Z,16.90
2018-10-17T17:40:05.159Z,16.80
2018-10-17T17:42:36.963Z,16.70
2018-10-17T17:45:10.211Z,16.60
2018-10-17T17:47:42.259Z,16.60
2018-10-17T17:50:13.991Z,16.50
2018-10-17T17:52:46.560Z,16.50
2018-10-17T17:55:18.266Z,16.40
2018-10-17T17:57:50.112Z,16.30
2018-10-17T18:00:21.940Z,16.30
2018-10-17T18:02:53.622Z,16.20
2018-10-17T18:05:25.504Z,16.10
2018-10-17T18:07:57.121Z,16.10
2018-10-17T18:10:29.672Z,16.00
2018-10-17T18:13:01.568Z,16.00
2018-10-17T18:15:33.438Z,15.90
2018-10-17T18:18:06.514Z,15.80
2018-10-17T18:20:38.163Z,15.80
2018-10-17T18:23:09.915Z,15.70
2018-10-17T18:25:42.481Z,15.70
2018-10-17T18:28:14.458Z,15.60
2018-10-17T18:30:46.314Z,15.60
2018-10-17T18:33:18.043Z,15.50
2018-10-17T18:35:50.531Z,15.50
2018-10-17T18:38:22.856Z,15.50
2018-10-17T18:40:55.524Z,15.50
2018-10-17T18:43:27.786Z,15.40
2018-10-17T18:45:59.942Z,15.40
2018-10-17T18:48:32.605Z,15.30
2018-10-17T18:51:04.836Z,15.20
2018-10-17T18:53:36.882Z,15.20
2018-10-17T18:56:09.012Z,15.10
2018-10-17T18:58:41.256Z,15.10
2018-10-17T19:01:13.510Z,15.00
2018-10-17T19:03:45.348Z,15.00
2018-10-17T19:06:17.228Z,14.90
2018-10-17T19:08:49.136Z,14.90
2018-10-17T19:11:21.171Z,14.90
2018-10-17T19:13:53.821Z,14.80
2018-10-17T19:16:25.711Z,14.80
2018-10-17T19:18:57.969Z,14.70
2018-10-17T19:21:29.582Z,14.70
2018-10-17T19:24:01.337Z,14.60
2018-10-17T19:26:33.265Z,14.60
2018-10-17T19:29:05.091Z,14.50
2018-10-17T19:31:37.640Z,14.50
2018-10-17T19:34:09.556Z,14.50
2018-10-17T19:36:42.372Z,14.40
2018-10-17T19:39:14.757Z,14.30
2018-10-17T19:41:47.358Z,14.30
2018-10-17T19:44:19.319Z,14.30
2018-10-17T19:46:51.386Z,14.30
2018-10-17T19:49:23.295Z,14.20
2018-10-17T19:51:55.884Z,14.20
2018-10-17T19:54:28.312Z,14.20
2018-10-17T19:57:00.094Z,14.10
2018-10-17T19:59:32.093Z,14.10
2018-10-17T20:02:04.345Z,14.00
2018-10-17T20:04:36.063Z,14.00
2018-10-17T20:07:08.009Z,14.00
2018-10-17T20:09:40.177Z,13.90
2018-10-17T20:12:11.885Z,13.90
2018-10-17T20:14:44.040Z,13.90
2018-10-17T20:17:16.361Z,13.90
2018-10-17T20:19:48.075Z,13.90
2018-10-17T20:22:19.987Z,14.00
2018-10-17T20:24:51.664Z,14.10
2018-10-17T20:27:23.267Z,14.10
2018-10-17T20:29:55.826Z,14.20
2018-10-17T20:32:27.812Z,14.20
2018-10-17T20:35:00.386Z,14.20
2018-10-17T20:37:32.159Z,14.20
2018-10-17T20:40:04.143Z,14.20
2018-10-17T20:42:35.840Z,14.20
2018-10-17T20:45:09.140Z,14.30
2018-10-17T20:47:40.970Z,14.30
2018-10-17T20:50:12.717Z,14.20
2018-10-17T20:52:44.542Z,14.10
2018-10-17T20:55:17.234Z,14.10
2018-10-17T20:57:50.144Z,14.00
2018-10-17T21:00:21.723Z,14.00
2018-10-17T21:02:53.412Z,14.00
2018-10-17T21:05:25.054Z,13.90
2018-10-17T21:07:58.476Z,13.90
2018-10-17T21:10:30.103Z,13.90
2018-10-17T21:13:02.103Z,13.90
2018-10-17T21:15:35.580Z,13.90
2018-10-17T21:18:07.731Z,13.90
2018-10-17T21:20:39.416Z,14.00
2018-10-17T21:23:11.434Z,14.10
2018-10-17T21:25:43.593Z,14.00
2018-10-17T21:28:16.580Z,14.00
2018-10-17T21:30:48.681Z,14.00
2018-10-17T21:33:21.335Z,14.00
2018-10-17T21:35:52.950Z,14.10
2018-10-17T21:38:25.204Z,14.00
2018-10-17T21:40:57.250Z,14.10
2018-10-17T21:43:28.822Z,14.10
2018-10-17T21:46:00.274Z,14.10
2018-10-17T21:48:32.315Z,14.10
2018-10-17T21:51:04.358Z,14.00
2018-10-17T21:53:36.718Z,14.10
2018-10-17T21:56:08.886Z,14.10
2018-10-17T21:58:40.554Z,14.20
2018-10-17T22:01:12.223Z,14.10
2018-10-17T22:03:44.272Z,14.10
2018-10-17T22:06:16.232Z,14.20
2018-10-17T22:08:48.237Z,14.20
2018-10-17T22:11:20.168Z,14.20
2018-10-17T22:13:51.709Z,14.20
2018-10-17T22:16:27.540Z,14.20
2018-10-17T22:18:59.177Z,14.20
2018-10-17T22:21:31.523Z,14.20
2018-10-17T22:24:02.984Z,14.10
2018-10-17T22:26:34.894Z,14.10
2018-10-17T22:29:07.573Z,14.10
2018-10-17T22:31:39.452Z,14.10
2018-10-17T22:34:11.536Z,14.10
2018-10-17T22:36:43.460Z,14.10
2018-10-17T22:39:16.383Z,14.10
2018-10-17T22:41:47.984Z,14.10
2018-10-17T22:44:21.137Z,14.10
2018-10-17T22:46:53.204Z,14.10
2018-10-17T22:49:25.292Z,14.10
2018-10-17T22:51:58.129Z,14.00
2018-10-17T22:54:30.141Z,13.90
2018-10-17T22:57:02.635Z,14.00
2018-10-17T22:59:34.662Z,13.90
2018-10-17T23:02:06.683Z,14.00
2018-10-17T23:04:38.465Z,13.90
2018-10-17T23:07:10.661Z,13.90
2018-10-17T23:09:43.066Z,13.90
2018-10-17T23:12:14.845Z,13.90
2018-10-17T23:14:47.285Z,13.90
2018-10-17T23:17:18.934Z,13.90
2018-10-17T23:19:51.045Z,13.90
2018-10-17T23:22:22.841Z,13.90
2018-10-17T23:24:54.874Z,13.90
2018-10-17T23:27:26.345Z,13.90
2018-10-17T23:29:58.441Z,13.90
2018-10-17T23:32:30.069Z,13.90
2018-10-17T23:35:02.577Z,13.80
2018-10-17T23:37:34.481Z,13.80
2018-10-17T23:40:06.261Z,13.80
2018-10-17T23:42:38.079Z,13.80
2018-10-17T23:45:10.320Z,13.70
2018-10-17T23:47:42.500Z,13.80
2018-10-17T23:50:14.383Z,13.80
2018-10-17T23:52:46.494Z,13.80
2018-10-17T23:55:18.264Z,13.80
2018-10-17T23:57:50.066Z,13.70
